cliquez pour ajouter le site Runraid à vos favoris  English version (google)  Retour à l'accueil Ecrire à l'auteur du site Runraid : Michel Jourdan



Les prochaines courses


Les derniers résultats

cliquez pour visualiser la page complète relatant la chronologie des éruptions du Piton de la Fournaise
éruptions Piton de la Fournaise


Ile de La Réunion

 Diagonale des Fous 

Ecrire au créateur du site : Michel Jourdan
Contact


2018-03-31 - 10 km Saint-Paul (course open)

Pour consulter le palmarès d'un coureur, un clic sur son nom !

Vous avez des remarques, corrections, ... sur ces résultats , un clic sur --> pour me transmettre toute information concernant les classements


10 km Saint-Paul (course open) - 2018 : classement des 332 finishers
Place Nom Temps Cat. Club Sexe Clt/cat.
Place Nom Temps Cat. Club Sexe Clt/cat.
1 ARHEL Mathieu 00:34:12 SEM M 603
2 MARC FRANCK 00:34:46 SEM M 814
3 BEN ARFA Adel 00:35:11 SEM M 616
4 VALADIER BENOIT 00:35:22 SEM M 861
5 GALAIS GILBERT 00:35:29 V1M M 1 V1M 850
6 LIBELLE JOVANY 00:36:44 SEM M 5 SEM 960
7 FAYS ULRICH 00:37:24 SEM M 6 SEM 866
8 CAROUPIN DIDIER 00:37:29 V1M M 2 V1M 990
9 BENARD baptiste 00:37:40 JUM M 1 JUM 916
10 RAJAOHEYTRA Alson 00:37:45 SEM M 7 SEM 731
11 HOAREAU Sebastien 00:37:58 SEM M 8 SEM 946
12 CHOWRIMOOTHOO CLYDE kERSLEY 00:38:20 SEM M 9 SEM 922
13 TURPIN VITRY Herve 00:38:42 V1M M 3 V1M 1005
14 IVARA Tommy 00:38:50 JUM M 2 JUM 1000
15 KAISSE jerome 00:38:50 V1M M 4 V1M 949
16 MOUTEAU Pascal 00:38:54 V1M M 5 V1M 711
17 BARDEUR mickael 00:39:01 V1M M 6 V1M 613
18 PAYET christophe roger 00:39:06 V2M M 1 V2M 720
19 DIJOUX Joseph nicol 00:39:08 V1M M 7 V1M 645
20 NOCALOU Vincent 00:39:20 SEM M 10 SEM 1013
21 DAMBREVILLE FABRICE 00:39:21 SEM M 11 SEM 865
22 HEURTIN Frederic 00:39:27 V1M M 8 V1M 676
23 AUJOULAT Arnaud 00:39:31 SEM M 12 SEM 608
24 REVEL Laurent 00:39:41 SEM M 13 SEM 734
25 LAM KAM matthias 00:39:53 SEM M 14 SEM 951
26 ROBERT Bertrand 00:39:56 V1M M 9 V1M 736
27 CLERVAL Gael 00:40:05 SEM M 15 SEM 637
28 FLORENCY Stephane 00:40:07 SEM M 16 SEM 652
29 DALLEAU JEAN PIERRE 00:40:09 V1M M 10 V1M 640
30 DOUTRELIGNE Francois 00:40:31 SEM M 17 SEM 649
31 FORT hugo 00:40:36 SEM M 18 SEM 931
32 BELLUNE Yohann 00:40:38 SEM M 19 SEM 615
33 GRONDIN JACQUES 00:40:44 V1M M 11 V1M 997
34 CELESTE ERIC 00:40:48 SEM M 20 SEM 632
35 BEGUE Emmanuel 00:40:49 SEM M 21 SEM 1014
36 VASSOR Jean Christophe 00:40:53 SEM M 22 SEM 1012
37 THOMAS Jean Christian 00:41:05 V2M M 2 V2M 912
38 CONTE Christophe 00:41:06 V2M M 3 V2M 923
39 FELICITE jean francois 00:41:33 V1M M 12 V1M 929
40 JULIENNE Richelet 00:41:42 V2M M 4 V2M 947
41 LESAGE Sebastien 00:41:45 V1M M 13 V1M 698
42 GRONDIN LOIC 00:41:49 SEM M 23 SEM 668
43 TARISTAS Johnson 00:41:50 SEM M 24 SEM 976
44 HOARAU JEANNICK JEAN CYRIL 00:42:09 V1M M 14 V1M 677
45 GANOVA ALEXANDRE 00:42:09 SEM M 25 SEM 905
46 MOREL BERTRAND 00:42:10 V1M M 15 V1M 897
47 CAROUPAYE CAROUPIN ALEXANDRE TOMY 00:42:12 CAM M 1 CAM 920
48 FONTAINE jules olivier 00:42:23 SEM M 26 SEM 655
49 GIGAN brice 00:42:25 SEM M 27 SEM 666
50 GARDEBIEN JEN PAUL 00:42:30 V1M M 16 V1M 663
51 LAW SHUN Matthieu 00:42:37 SEM M 28 SEM 954
52 GANOFSKY JEAN FRANCOIS 00:42:47 V1M M 17 V1M 932
53 ROBERT LARY 00:42:48 SEM M 29 SEM 992
54 BELLINI alexandre 00:42:50 V1M M 18 V1M 915
55 LON MON POY ERIC 00:42:53 V1M M 19 V1M 989
56 FELD SYLVAIN 00:42:58 V2M M 5 V2M 896
57 LAHURE francois 00:43:14 V2M M 6 V2M 686
58 BACH Daniel 00:43:21 V2M M 7 V2M 1006
59 SCODAVOLPE Fabrice 00:43:27 SEM M 30 SEM 737
60 RENNEVILLE roberto 00:43:28 V2M M 8 V2M 733
61 GASTRIN jean 00:43:31 SEM M 31 SEM 664
62 LAMBERT alexandre 00:43:43 SEM M 32 SEM 688
63 GUYOT Daniel 00:43:43 V2M M 9 V2M 675
64 KASSIMOU BAKARI SAID 00:43:44 V1M M 20 V1M 991
65 LAW TCHI KUN Jean Bernard 00:43:47 V2M M 10 V2M 694
66 SOUBOU richelet 00:43:49 V1M M 21 V1M 742
67 CORRE Olivier 00:43:50 SEM M 33 SEM 1031
68 LEBON Thierry 00:43:55 V1M M 22 V1M 957
69 SERVEAUX Samuel Joselito 00:44:03 V1M M 23 V1M 739
70 JURAIN STEPHANE 00:44:04 V1M M 24 V1M 807
71 MERLO eddy 00:44:05 SEM M 34 SEM 709
72 MERCHERMERCIER JEAN LUC 00:44:12 V2M M 11 V2M 860
73 LAW WUN Thierry 00:44:26 V1M M 25 V1M 693
74 LEPOITTEVIN noel 00:44:32 V1M M 26 V1M 959
75 PALAMA olivier 00:44:39 SEM M 35 SEM 716
76 ROUDIC JONATHAN 00:44:45 SEM M 36 SEM 851
77 CATHUDAL JOSEPHA 00:44:46 SEF F 1ere F 988
78 GRONDIN Sebastien 00:44:52 SEM M 37 SEM 670
79 SIMOES FILIPE 00:44:58 V1M M 27 V1M 832
80 HOARAU Ludovic 00:44:59 SEM M 38 SEM 944
81 NOEL FABIO 00:45:00 V1M M 28 V1M 817
82 MEUNIER LUCAS 00:45:11 SEM M 39 SEM 871
83 JUVESY Thomas 00:45:13 SEM M 40 SEM 948
84 CARTELLA SEBASTIEN 00:45:18 SEM M 41 SEM 996
85 MARION eugene 00:45:30 V1M M 29 V1M 706
86 DERRIEN DAVID 00:45:38 SEM M 42 SEM 644
87 FORESTIER Florian 00:45:38 SEM M 43 SEM 658
88 ALTHIERY Corine 00:45:40 V1F F 2eme F 601
89 BONIFACE TOUSSAINT JEAN PAUL 00:45:45 V1M M 30 V1M 623
90 GUICHARD Gilles 00:45:49 V3M M 1 V3M 671
91 BERTILLE Jean bernard 00:45:52 SEM M 44 SEM 619
92 FONTAINE Nicolas 00:45:53 JUM M 3 JUM 657
93 LARGEMENT JACKY 00:45:54 V2M M 12 V2M 691
94 CARO DIDIER 00:45:55 SEM M 45 SEM 629
95 HAMILCARO Gilbert 00:45:58 V1M M 31 V1M 938
96 SOMNICA jean alain 00:46:06 V2M M 13 V2M 740
97 NANGUE MARCEL 00:46:10 V1M M 32 V1M 967
98 LESAGE Renan 00:46:12 JUM M 4 JUM 699
99 LAURET Raissa 00:46:15 SEF F 3eme F 1011
100 RUGGIERO Renaldo 00:46:18 SEM M 46 SEM 972
101 GALMAR Christophe 00:46:20 V1M M 33 V1M 662
102 BOUCHER Fabrice 00:46:21 V1M M 34 V1M 624
103 FOLIO benjamin 00:46:34 SEM M 47 SEM 930
104 MERLO ignace 00:46:37 V3M M 2 V3M 708
105 CAVANE Marie Christine 00:46:41 V1F USPGA F 2 V1F 592
106 BILLA KARL 00:46:58 SEM M 48 SEM 620
107 LAMBRIQUET VINCENT 00:46:59 SEM M 49 SEM 876
108 PATCHE CEDRIC 00:47:01 SEM M 50 SEM 886
109 MALLI JEAN BERNARD 00:47:03 M M 1 M 813
110 HEGOBURU Julie 00:47:05 SEF F 3 SEF 940
111 MOREL Paul 00:47:08 V2M M 14 V2M 966
112 LE DAVADIC STEPHANIE 00:47:10 V1F F 3 V1F 955
113 LOUBIE LUC OLIVIER 00:47:20 SEM M 51 SEM 701
114 AUBERVAL Kevin 00:47:34 SEM M 52 SEM 605
115 PICARD Paul 00:47:42 V2M M 15 V2M 721
116 LECOCQ Odile 00:47:45 V1F F 4 V1F 1018
117 ALEX jonathan 00:47:48 SEM M 53 SEM 600
118 REGNIER francois 00:47:51 V2M M 16 V2M 732
119 LUCAS Jean Louis 00:47:54 V2M M 17 V2M 703
120 AUGUSTINE Jean richel 00:48:01 SEM M 54 SEM 607
121 LEBON Mathieu 00:48:03 SEM M 55 SEM 1009
122 SCHREIBER FABIEN 00:48:08 V1M M 35 V1M 831
123 ETOUARIA CEDRIC 00:48:09 SEM M 56 SEM 987
124 HIRIART peyo 00:48:11 SEM M 57 SEM 942
125 DEBENOIT Helene 00:48:17 SEF F 4 SEF 642
126 MAURICE Jean Yves 00:48:20 V1M M 36 V1M 707
127 DOUARIN Frederic 00:48:24 V1M M 37 V1M 648
128 AMILY Jessica 00:48:25 SEF F 5 SEF 911
129 DIDIER PASCALINE 00:48:29 V1M M 38 V1M 844
130 BLANCA SERGE 00:48:34 V1M M 39 V1M 462
131 BARBIN Michel 00:48:35 V3M M 3 V3M 612
132 MARIANNE DAVID 00:48:39 V1M M 40 V1M 909
133 TOUSSAINT mireille 00:48:40 V1F F 5 V1F 979
134 VILPONT Jean flavien 00:48:41 V1M M 41 V1M 754
135 DE LAUNAY STEPHANE 00:48:50 V1M M 42 V1M 925
136 MAOUT Lucile 00:48:56 SEF F 6 SEF 704
137 TAURINES NICOLAS 00:48:56 V1M M 43 V1M 835
138 BALBOLIA hamza 00:48:59 SEM M 58 SEM 1003
139 BACHE Julien 00:48:59 SEM M 59 SEM 609
140 LEPERLIER AGNIEL 00:49:01 V2M M 18 V2M 878
141 LACREUSE Amandine 00:49:04 SEF F 7 SEF 684
142 MAILLOT SERGES 00:49:11 V3M M 4 V3M 879
143 JOSSE Michael 00:49:14 SEM M 60 SEM 683
144 BENARD stephan 00:49:19 V1M M 44 V1M 617
145 DORSEUIL Richard 00:49:23 V2M M 19 V2M 647
146 SOPHIE Edie 00:49:24 V1M M 45 V1M 741
147 THIREL DOMINIQUE 00:49:29 V2M M 20 V2M 837
148 LORRAINE THIERRY 00:49:30 V2M M 21 V2M 700
149 BURGLIN STEPHANIE 00:49:32 SEF F 8 SEF 626
150 CRESCENCE andre 00:49:55 V2M M 22 V2M 639
151 ROUSSE Terr 00:49:57 CAM M 2 CAM 913
152 VITRY jean bruno 00:49:58 V1M M 46 V1M 984
153 TECHER Thierry 00:50:06 SEM M 61 SEM 977
154 GARRETA Laurent 00:50:08 V1M M 47 V1M 934
155 VASSOR Julien 00:50:10 JUM M 5 JUM 751
156 ETHEVE Yann Laurent 00:50:12 SEM M 62 SEM 1032
157 THOMAS AXEL 00:50:13 V3M M 5 V3M 845
158 VIENNE Samuel 00:50:20 SEM M 63 SEM 983
159 CHERON mathieu 00:50:23 SEM M 64 SEM 636
160 SUZANNE jairo 00:50:23 SEM M 65 SEM 745
161 SERY Sebastien 00:50:25 SEM M 66 SEM 973
162 PAYET Walter Richard 00:50:26 V1M M 48 V1M 718
163 GULLON ADELINE 00:50:28 SEF F 9 SEF 936
164 LARTAUD JANY 00:50:45 V2M M 23 V2M 952
165 ODULES EMMANUEL 00:50:45 SEM M 67 SEM 715
166 JONZO Mathieu 00:50:47 SEM M 68 SEM 1068
167 POTHIN eric 00:50:47 SEM M 69 SEM 726
168 PAUSE RENE CLAUDE 00:50:48 V2M M 24 V2M 820
169 GIGAN FREDERIC 00:50:55 SEM M 70 SEM 993
170 KERNER Sylvain 00:51:11 V1M M 49 V1M 1001
171 FUSTEMBERG THIERRY 00:51:16 V2M M 25 V2M 802
172 CATOUARIA Jean paul 00:51:21 V3M M 6 V3M 630
173 BADILLER Lysiane 00:51:35 SEF F 10 SEF 610
174 HOARAU Christophe 00:51:41 V1M M 50 V1M 943
175 NAZE Tony 00:51:41 SEM M 71 SEM 968
176 CALOGINE nicolas 00:51:42 SEM M 72 SEM 627
177 PITAULT boris 00:51:46 V1M M 51 V1M 722
178 BAUPERTUIS FABIENNE 00:51:55 V1F F 6 V1F 782
179 PRADIER FRANCK 00:51:55 V2M M 26 V2M 823
180 LAPIERRE Florence 00:52:07 SEF F 11 SEF 689
181 BAILLIF Virginie 00:52:08 SEF F 12 SEF 611
182 MARDAILLE PALLY Cedric 00:52:19 SEM M 73 SEM 705
183 MARIANNE FREDERIQUE 00:52:28 V1F F 7 V1F 910
184 LAGOURGUE Remy 00:52:39 V1M M 52 V1M 685
185 BREDA Georges Henri 00:52:49 V1M M 53 V1M 999
186 ANELARD MARIE BETTY 00:52:51 V1F F 8 V1F 602
187 DERFLA JEROME 00:52:51 SEM M 74 SEM 868
188 LEE SONG YIN LUCAS 00:52:52 CAM M 3 CAM 696
189 VILPONT EDMOND 00:52:59 V2M M 27 V2M 872
190 DENNIEL JEAN FRANCOIS 00:53:14 V1M M 54 V1M 926
191 THEVENIN JOSEPH 00:53:16 V2M M 28 V2M 884
192 FONTAINE JEAN PAUL 00:53:18 V3M M 7 V3M 656
193 COULOMBEL Francois 00:53:21 SEM M 75 SEM 1007
194 JANIN ANNE CECILE 00:53:26 V1F F 9 V1F 681
195 VOLTIGE JOHAN 00:53:33 V1M M 55 V1M 986
196 LARDAL JOHANN ERIC 00:53:34 V1M M 56 V1M 690
197 QUONIAM CELINE 00:53:41 V2F F 1 V2F 825
198 JORON erickson 00:53:45 SEM M 76 SEM 682
199 FINEL Celine 00:53:46 V1F F 10 V1F 651
200 SUTTER PATRICE 00:53:47 V2M M 29 V2M 975
201 BOYER Marcel Felix 00:53:50 V1M M 57 V1M 918
202 LORICOURT David 00:53:56 SEM M 77 SEM 961
203 CADOT DAVID 00:53:58 V1M M 58 V1M 904
204 RIVIERE SABINE 00:54:01 V1F F 11 V1F 882
205 MOREL Marie Denise 00:54:01 SEF F 13 SEF 965
206 GRONDIN MICKAEL 00:54:02 V1M M 59 V1M 669
207 LASSALLE bruno 00:54:04 V1M M 60 V1M 953
208 LALLEMAND JOEL JEAN FRANCOIS 00:54:12 V1M M 61 V1M 687
209 FRANCOISE Alain 00:54:25 V2M M 30 V2M 660
210 BRILLANT VANESSA 00:54:27 SEF F 14 SEF 995
211 LEBON Alexandre 00:54:32 V1M M 62 V1M 958
212 CHAGNAUD eric 00:54:34 V1M M 63 V1M 634
213 BRUNIQUET Anthony 00:54:35 ESM M 1 ESM 625
214 MALLET M. CHRISTINE 00:54:35 SEF F 15 SEF 869
215 BREDA Bertrand 00:54:38 SEM M 78 SEM 998
216 ASTOIN sandrine 00:54:39 V1F F 12 V1F 604
217 GRUCHET KELLY 00:54:40 V1F F 13 V1F 935
218 CHAVENT AGNES 00:54:46 SEF F 16 SEF 921
219 MOUNIAMA COUPAN J. PASCAL 00:54:47 V1M M 64 V1M 864
220 BRANQUART CLARA 00:54:50 F F 785
221 VOLTIGE YANNIS 00:55:00 SEM M 79 SEM 758
222 HENRY Regis 00:55:00 V1M M 65 V1M 941
223 BASQUAISE ANNE SOPHIE 00:55:03 V1F F 14 V1F 874
224 GUILLEMOT Christophe 00:55:10 V1M M 66 V1M 672
225 TISSET Julien 00:55:12 SEM M 80 SEM 748
226 WOLF MORGANE 00:55:21 SEF F 17 SEF 875
227 CASTEL J. FRANCOIS 00:55:24 V1M M 67 V1M 883
228 PAYET etienne laurent 00:55:25 V1M M 68 V1M 719
229 MOUTY SINAN NICOLAS 00:55:32 V3M M 8 V3M 885
230 PITAULT Clarisse 00:55:51 V1F F 15 V1F 723
231 SADZOUTE IDRISS 00:55:54 V1M M 69 V1M 854
232 LEGROS Laurence 00:55:57 SEF F 18 SEF 1008
233 FOURVEL JACQUES 00:56:10 V3M M 9 V3M 800
234 HAGEN MIKAEL 00:56:22 SEM M 81 SEM 887
235 MANTES GEORGES MARIE 00:56:28 V2M M 31 V2M 846
236 SEROR Eva 00:56:37 SEF F 19 SEF 738
237 CHAGNAUD ANGELIQUE 00:56:41 V1F F 16 V1F 633
238 BLAS Maurice 00:56:42 V2M M 32 V2M 622
239 POISSON Guillaume 00:56:44 V1M M 70 V1M 724
240 GUTIEZ valerie 00:56:51 V1F F 17 V1F 937
241 OUVRY LYDIE 00:56:55 SEF F 20 SEF 818
242 TESSIER pierre yves 00:57:10 V3M M 10 V3M 747
243 BALD Emmanuelle 00:57:11 V2F F 2 V2F 914
244 FABRICE MACARTY 00:57:19 V1M M 71 V1M 928
245 PONIN sida 00:57:25 SEF F 21 SEF 725
246 MAREUX JULIE 00:57:29 SEF F 22 SEF 963
247 CANTINA Dany 00:57:32 V1M M 72 V1M 1004
248 CANON JOCELYNE 00:57:39 V1F F 18 V1F 786
249 COULOMBEL Camille 00:57:40 SEF F 23 SEF 638
250 PAQUIRY Eddy 00:57:54 SEM M 82 SEM 717
251 POUMAILLOUX Agnes 00:57:56 SEF F 24 SEF 729
252 RUBEL M. PAULE 00:58:24 V2F F 3 V2F 889
253 SOUDJAOUMA J. FRANCOIS 00:58:26 V2M M 33 V2M 890
254 GUILLOU Bernadette 00:58:49 V3F F 1 V3F 673
255 HOAREAU Angelina 00:58:53 SEF F 25 SEF 945
256 CATOUARIA Mylene 00:58:59 SEF F 26 SEF 631
257 ELISABETH LUCIE 00:59:27 SEF F 27 SEF 927
258 HUET Fabrice 00:59:37 SEM M 83 SEM 679
259 LOUISE M. ANDREE 00:59:40 SEF F 28 SEF 994
260 BARRET SHEILA 00:59:47 SEF F 29 SEF 867
261 BACHEL Bruno 00:59:50 V2M M 34 V2M 1019
262 RIVIERE PATRICE 00:59:54 V1M M 73 V1M 827
263 NILOKY Pamela 00:59:55 SEF F 30 SEF 713
264 FOLIO Monique 01:00:04 SEF F 31 SEF 653
265 MARIANNE DIT GERARD ULRICH 01:00:14 SEM M 84 SEM 816
266 LOVELACE CINTHYA 01:00:14 SEF F 32 SEF 962
267 TOUCHARD Alice 01:00:20 SEF F 33 SEF 749
268 VIRANIN Bruno 01:00:25 SEM M 85 SEM 755
269 LE MENTEC Sophie 01:00:35 SEF F 34 SEF 956
270 HAUTEVILLE THOMAS 01:00:35 SEM M 86 SEM 939
271 AIRPAR FRANCOIS 01:00:35 V1M M 74 V1M 880
272 VAN DAMME natacha 01:00:37 V1F F 19 V1F 981
273 LUCAS Florian 01:00:53 SEM M 87 SEM 702
274 POUCHARD Charly 01:01:01 SEM M 88 SEM 727
275 CALLY SANJAY 01:01:35 SEM M 89 SEM 888
276 CHEBION Clemence 01:01:37 SEF F 35 SEF 635
277 FACHE ADELINE 01:01:38 SEF F 36 SEF 847
278 AUVERGNON LISEMAY 01:01:38 SEF F 37 SEF 848
279 LECOEUR FLORIAN 01:01:38 SEM M 90 SEM 849
280 FRESCA lucie 01:01:43 SEF F 38 SEF 661
281 TOULCANON aline 01:01:46 SEF F 39 SEF 978
282 MERCIER geoffroy 01:01:48 V2M M 35 V2M 964
283 SOUBOU LOIC 01:02:01 ESM M 2 ESM 833
284 RECHE TOM 01:02:05 CAM M 4 CAM 841
285 BOISSIER herve 01:02:05 V3M M 11 V3M 917
286 RECHE BERNARD 01:02:05 V2M M 36 V2M 826
287 LUCQUIAUD BRUNO 01:02:06 V3M M 12 V3M 810
288 PRONOST PHILIPPE 01:02:06 V2M M 37 V2M 840
289 MORELLE JULIE 01:02:07 SEF F 40 SEF 870
290 DJIRIDJI NADIA 01:02:07 V2M M 38 V2M 859
291 ABDOU Hassani 01:02:11 V1M M 75 V1M 1015
292 BENARD Eulalie 01:02:23 SEF F 41 SEF 618
293 VISEE Elodie 01:02:24 SEF F 42 SEF 756
294 TRINEZ frederic 01:02:39 V2M M 39 V2M 750
295 GENDRE LAURENCE 01:03:05 V2F F 4 V2F 804
296 GORE Beatrice 01:03:55 V1F F 20 V1F 667
297 EDERN CLAUDINE 01:04:04 V2F F 5 V2F 796
298 EDERN MARC 01:04:04 V2M M 40 V2M 795
299 MURAT Audrey 01:04:16 SEF F 43 SEF 1010
300 PAYET NATHALIE 01:04:27 SEF F 44 SEF 969
301 AYATA ZARA 01:06:04 SEF F 45 SEF 1002
302 SOUSA KAISERGRUBER SANDRA 01:06:20 SEF F 46 SEF 974
303 RITTER Anne Sophie 01:06:23 SEF F 47 SEF 735
304 DELANOE Nathalie 01:06:23 SEF F 48 SEF 643
305 MULLA nadaa 01:06:51 SEF F 49 SEF 712
306 BLAS Christel 01:07:33 V2F F 6 V2F 621
307 BUHOT LAUNAY Clemence 01:07:37 SEF F 50 SEF 919
308 NORMAND FRANCK 01:07:46 V1M M 76 V1M 714
309 EDMOND JEAN DAVID 01:07:49 V1M M 77 V1M 797
310 FONTAINE CLAREL 01:08:10 V1M M 78 V1M 798
311 IMIG DEBORAH 01:08:10 V1F F 21 V1F 806
312 FOLIO Laurent 01:08:38 CAM M 5 CAM 654
313 PIETRA Nancy 01:08:56 V2F F 7 V2F 970
314 IMAHO ICHIZA Kelly 01:09:13 SEF F 51 SEF 680
315 GARDENAT SANDRINE 01:10:23 V1F F 22 V1F 933
316 FONTAINE THIERRY 01:10:25 V2M M 41 V2M 799
317 BASQUAISE SONIA 01:10:30 V1F F 23 V1F 873
318 FOUReS Jenny 01:10:32 SEF F 52 SEF 659
319 AUBRAS Marie andree 01:10:51 SEF F 53 SEF 606
320 TETU PASCALINE 01:11:28 V1F F 24 V1F 836
321 VEE Josette 01:13:12 V3F F 2 V3F 1020
322 NEPAL DOMINIQUE 01:13:26 SEM M 91 SEM 906
323 PAYET FRANCK 01:13:26 V2M M 42 V2M 821
324 STOOP Yvonne 01:14:05 V1F F 25 V1F 743
325 STOOP THOMAS 01:14:05 SEM M 92 SEM 744
326 VALLIAMEE MARIE CYNDIE 01:14:12 SEF F 54 SEF 980
327 MEYER Anne sophie 01:14:31 SEF F 55 SEF 710
328 GAUVIN margaret 01:14:31 V1F F 26 V1F 665
329 GRANDMENIL GUY NOEL 01:14:36 SEM M 93 SEM 862
330 RAKOTODRAMANANA NIRINA 01:14:36 SEF F 56 SEF 863
331 GUIRAUD jean 01:20:59 V3M M 13 V3M 674
332 RAHIM KHAN AZIZE 01:34:24 V3M M 14 V3M 730


ReferencementCe site est listé dans la catégorie Sport : Sports extrêmes Dictionnaire
| Accueil | La Réunion  Vue du ciel | Météo | Cyclones | Volcan | Cirques de Mafate , Cilaos , Salazie | Photos Randonnées | Randonnées Réunion: Randos Espiègle , Courses montagne | Diagonale des Fous |  Marathon des Sables | Voyages Les stats du site | Fonds écran | Plan du site | Blog de runraid | Galerie photos Sport Réunion |